Pagrindinis puslapis
METAR-TAF:

METAR-TAF

Oro uostai :

Rio Brankas, Akrė, Brazilija

platuma: 10-00S, ilguma: 067-48W, Aukštis: 142 m

Dabartinis oras

Ataskaita buvo paskelbta 38 minutes, ne 09:12 UTC
Vėjas 11 kt iš Šiaurės/Šiaurės Vakarų su gūsio iki 22 kt
Temperatūra 24°C
Drėgmė 94%
Slėgis 1009 hPa
Matomumas: 0300 m
Išsisklaidę debesys ne aukštis 400 ft
Mažai debesys ne aukštis 2500 ft, aukštai iškilę kamuoliniai debesys.
Su prošvaistėmis ne aukštis 3000 ft
lietus

METAR: SBRB 090912Z 33011G22KT 0300 R06/P2000 +RA SCT004 FEW025TCU BKN030 24/23 Q1009

Laikas: 04:50 (09:50 UTC)

Prognozė

Ataskaita buvo paskelbta 6 valandos ir 50 minutes, ne 03:00 UTC
Prognozė galioja nuo 09 metu 06 UTC su 09 metu 18 UTC
Vėjas 5 kt iš Šiaurės
Matomumas 10 km arba daugiau
nėra debesų žemiau 1500 m ir nėra kamuolinių lietaus debesų
Tapsmas
nuo 09 metu 12 UTC su 09 metu 14 UTC
Vėjas 5 kt iš Šiaurės Vakarų
Mažai debesys ne aukštis 2500 ft

TAF: SBRB 090300Z 0906/0918 35005KT CAVOK TN23/0908Z TX32/0917Z BECMG 0912/0914 32005KT FEW025 RMK PGY

Orai ataskaitas ir orų prognozės (METAR, TAF).

turimą stotys yra geltonos ir raudonos taškus žemėlapyje.

Perkelti pele per norėdami pamatyti stoties vardą.

Tada spustelėkite, norėdami matyti oro stebėjimo ir prognozės.

Norėdami pakeisti žemėlapį: spustelėkite ant žalios mygtukų su juodo kryžiaus žemyn,; žalią mygtuką su brūkšneliu, jei norite nutolinti; arba žalių rodyklių gretimoms žemėlapius.


METAR-TAF: